createdAt,value
2019-04-23T00:02:51.153Z,3.62
2019-04-23T00:05:33.176Z,3.50
2019-04-23T00:10:29.790Z,3.17
2019-04-23T00:15:46.046Z,4.40
2019-04-23T00:18:12.389Z,2.43
2019-04-23T00:20:42.896Z,5.23
2019-04-23T00:23:14.324Z,3.62
2019-04-23T00:26:02.614Z,3.67
2019-04-23T00:28:35.944Z,4.63
2019-04-23T00:31:15.213Z,4.53
2019-04-23T00:33:37.248Z,4.77
2019-04-23T00:36:17.423Z,4.40
2019-04-23T00:41:33.322Z,3.50
2019-04-23T00:43:52.763Z,7.85
2019-04-23T00:46:15.548Z,2.97
2019-04-23T00:48:55.756Z,4.40
2019-04-23T00:51:20.253Z,5.33
2019-04-23T00:53:51.885Z,6.75
2019-04-23T00:58:57.911Z,3.70
2019-04-23T01:01:32.678Z,3.05
2019-04-23T01:03:53.050Z,4.85
2019-04-23T01:06:24.290Z,3.58
2019-04-23T01:08:55.145Z,3.53
2019-04-23T01:11:26.373Z,6.23
2019-04-23T01:13:57.543Z,4.75
2019-04-23T01:16:28.590Z,7.67
2019-04-23T01:19:06.846Z,3.62
2019-04-23T01:21:28.921Z,4.45
2019-04-23T01:24:34.467Z,6.08
2019-04-23T01:27:39.746Z,3.30
2019-04-23T01:30:08.134Z,5.87
2019-04-23T01:32:34.853Z,6.87
2019-04-23T01:37:36.726Z,6.37
2019-04-23T01:40:07.707Z,5.80
2019-04-23T01:45:07.345Z,4.93
2019-04-23T01:47:39.019Z,6.17
2019-04-23T01:52:45.563Z,5.27
2019-04-23T01:55:14.939Z,3.70
2019-04-23T01:57:46.945Z,5.60
2019-04-23T02:00:19.814Z,4.17
2019-04-23T02:02:52.465Z,4.05
2019-04-23T02:05:22.917Z,4.45
2019-04-23T02:07:53.696Z,5.13
2019-04-23T02:10:22.191Z,4.87
2019-04-23T02:17:52.119Z,4.63
2019-04-23T02:20:33.198Z,5.03
2019-04-23T02:23:21.360Z,6.72
2019-04-23T02:38:31.580Z,6.45
2019-04-23T02:41:31.735Z,6.10
2019-04-23T02:43:24.523Z,5.10
2019-04-23T02:46:02.530Z,4.25
2019-04-23T02:48:48.833Z,7.95
2019-04-23T02:53:44.327Z,4.60
2019-04-23T02:58:34.154Z,4.43
2019-04-23T03:01:22.053Z,4.30
2019-04-23T03:06:05.945Z,5.60
2019-04-23T03:08:45.662Z,4.47
2019-04-23T03:13:48.243Z,5.00
2019-04-23T03:21:56.086Z,5.77
2019-04-23T03:27:23.400Z,5.03
2019-04-23T03:29:51.286Z,5.43
2019-04-23T03:37:23.270Z,5.43
2019-04-23T03:40:00.488Z,5.20
2019-04-23T03:42:24.026Z,6.77
2019-04-23T03:47:24.811Z,6.10
2019-04-23T03:50:02.543Z,4.97
2019-04-23T03:57:24.738Z,4.87
2019-04-23T04:02:54.324Z,5.13
2019-04-23T04:04:53.632Z,6.60
2019-04-23T04:07:44.442Z,5.17
2019-04-23T04:10:00.007Z,5.33
2019-04-23T04:15:33.258Z,5.77
2019-04-23T04:20:09.721Z,5.63
2019-04-23T04:23:00.030Z,7.90
2019-04-23T04:25:08.865Z,5.47
2019-04-23T04:27:48.029Z,5.23
2019-04-23T04:30:16.905Z,8.80
2019-04-23T04:32:51.049Z,6.23
2019-04-23T04:37:55.993Z,6.23
2019-04-23T04:42:41.683Z,6.30
2019-04-23T04:50:35.238Z,7.90
2019-04-23T04:55:21.026Z,6.97
2019-04-23T05:10:32.504Z,7.53
2019-04-23T05:12:59.539Z,5.63
2019-04-23T05:15:23.738Z,6.23
2019-04-23T05:18:22.015Z,6.57
2019-04-23T05:20:46.423Z,6.57
2019-04-23T05:23:26.988Z,4.97
2019-04-23T05:25:47.289Z,4.80
2019-04-23T05:28:12.611Z,6.00
2019-04-23T05:33:17.119Z,6.63
2019-04-23T05:36:08.992Z,5.87
2019-04-23T05:38:29.239Z,6.83
2019-04-23T05:40:53.630Z,6.10
2019-04-23T05:43:19.290Z,5.80
2019-04-23T05:45:46.651Z,5.30
2019-04-23T05:50:58.836Z,6.13
2019-04-23T05:53:30.738Z,6.53
2019-04-23T05:55:58.415Z,5.40
2019-04-23T05:58:28.682Z,8.38
2019-04-23T06:01:42.366Z,5.35
2019-04-23T06:03:58.252Z,7.42
2019-04-23T06:06:29.743Z,4.65
2019-04-23T06:09:01.228Z,7.03
2019-04-23T06:11:36.782Z,7.55
2019-04-23T06:16:36.295Z,6.55
2019-04-23T06:21:38.482Z,6.53
2019-04-23T06:24:09.864Z,7.20
2019-04-23T06:26:40.104Z,11.55
2019-04-23T06:29:05.379Z,5.90
2019-04-23T06:31:41.087Z,5.80
2019-04-23T06:34:20.208Z,6.83
2019-04-23T06:36:47.839Z,5.97
2019-04-23T06:39:23.334Z,10.08
2019-04-23T06:41:50.034Z,7.10
2019-04-23T06:44:24.084Z,6.37
2019-04-23T06:46:56.745Z,10.60
2019-04-23T06:49:27.944Z,4.87
2019-04-23T06:54:35.856Z,5.72
2019-04-23T06:57:08.529Z,4.65
2019-04-23T06:59:34.047Z,4.90
2019-04-23T07:02:10.107Z,6.60
2019-04-23T07:04:43.383Z,5.30
2019-04-23T07:09:34.953Z,5.70
2019-04-23T07:12:10.437Z,6.75
2019-04-23T07:14:47.663Z,7.40
2019-04-23T07:17:08.591Z,5.35
2019-04-23T07:19:42.363Z,4.97
2019-04-23T07:24:41.919Z,4.97
2019-04-23T07:27:13.177Z,7.28
2019-04-23T07:29:48.293Z,7.15
2019-04-23T07:32:11.095Z,7.20
2019-04-23T07:34:49.476Z,5.87
2019-04-23T07:37:18.939Z,5.22
2019-04-23T07:40:21.630Z,5.15
2019-04-23T07:45:17.150Z,5.53
2019-04-23T07:48:12.417Z,6.80
2019-04-23T07:53:31.434Z,9.05
2019-04-23T07:58:22.083Z,6.22
2019-04-23T08:00:57.071Z,5.62
2019-04-23T08:03:27.380Z,5.85
2019-04-23T08:05:42.524Z,5.62
2019-04-23T08:08:21.467Z,4.85
2019-04-23T08:13:47.368Z,5.22
2019-04-23T08:16:21.755Z,7.65
2019-04-23T08:18:48.095Z,7.62
2019-04-23T08:21:24.738Z,6.22
2019-04-23T08:24:05.833Z,4.78
2019-04-23T08:26:50.809Z,4.97
2019-04-23T08:29:24.068Z,7.25
2019-04-23T08:34:30.295Z,8.98
2019-04-23T08:36:58.307Z,8.78
2019-04-23T08:39:37.267Z,5.55
2019-04-23T08:42:23.635Z,6.65
2019-04-23T08:44:56.541Z,7.45
2019-04-23T08:54:52.305Z,8.93
2019-04-23T08:57:25.905Z,7.08
2019-04-23T09:05:00.812Z,6.85
2019-04-23T09:07:27.942Z,8.10
2019-04-23T09:10:07.894Z,8.83
2019-04-23T09:15:01.618Z,7.47
2019-04-23T09:17:34.705Z,5.83
2019-04-23T09:20:18.001Z,5.72
2019-04-23T09:22:34.473Z,7.67
2019-04-23T09:25:18.431Z,6.85
2019-04-23T09:27:42.419Z,5.58
2019-04-23T09:30:09.464Z,6.80
2019-04-23T09:32:43.388Z,7.15
2019-04-23T09:35:30.879Z,6.00
2019-04-23T09:38:39.575Z,6.92
2019-04-23T09:44:23.201Z,8.35
2019-04-23T09:47:03.308Z,7.10
2019-04-23T09:49:26.055Z,6.30
2019-04-23T09:52:02.501Z,13.78
2019-04-23T09:54:32.586Z,6.50
2019-04-23T09:56:52.604Z,9.85
2019-04-23T09:59:38.723Z,8.65
2019-04-23T10:01:51.298Z,7.65
2019-04-23T10:04:19.424Z,8.48
2019-04-23T10:06:39.084Z,7.70
2019-04-23T10:09:12.139Z,8.75
2019-04-23T10:11:41.107Z,8.18
2019-04-23T10:14:10.607Z,6.60
2019-04-23T10:16:41.319Z,7.40
2019-04-23T10:19:12.151Z,6.10
2019-04-23T10:21:41.876Z,8.08
2019-04-23T10:24:12.986Z,5.78
2019-04-23T10:26:43.783Z,7.95
2019-04-23T10:29:18.116Z,6.42
2019-04-23T10:31:47.525Z,9.60
2019-04-23T10:34:17.113Z,8.28
2019-04-23T10:36:47.386Z,9.05
2019-04-23T10:39:23.257Z,12.30
2019-04-23T10:41:48.820Z,7.17
2019-04-23T10:44:52.086Z,12.37
2019-04-23T10:48:24.626Z,7.45
2019-04-23T10:50:50.985Z,10.15
2019-04-23T10:58:25.037Z,10.50
2019-04-23T11:01:02.006Z,7.30
2019-04-23T11:03:42.168Z,10.30
2019-04-23T11:08:31.148Z,6.90
2019-04-23T11:10:58.898Z,7.70
2019-04-23T11:13:50.285Z,7.37
2019-04-23T11:18:53.616Z,5.90
2019-04-23T11:23:56.054Z,6.47
2019-04-23T11:26:26.238Z,10.70
2019-04-23T11:28:45.775Z,9.38
2019-04-23T11:31:31.684Z,11.28
2019-04-23T11:41:38.401Z,8.35
2019-04-23T11:43:55.342Z,8.28
2019-04-23T11:46:48.509Z,9.13
2019-04-23T11:49:22.383Z,8.55
2019-04-23T11:51:46.087Z,7.30
2019-04-23T11:54:07.285Z,6.83
2019-04-23T11:57:07.869Z,5.97
2019-04-23T11:59:12.335Z,9.50
2019-04-23T12:04:51.184Z,8.35
2019-04-23T12:07:22.932Z,7.65
2019-04-23T12:09:53.417Z,8.98
2019-04-23T12:12:29.788Z,5.78
2019-04-23T12:15:07.284Z,8.98
2019-04-23T12:17:32.567Z,8.00
2019-04-23T12:22:43.514Z,8.83
2019-04-23T12:25:19.871Z,7.95
2019-04-23T12:27:33.210Z,8.75
2019-04-23T12:32:48.446Z,10.38
2019-04-23T12:35:19.586Z,7.72
2019-04-23T12:40:40.406Z,10.32
2019-04-23T12:43:15.620Z,8.80
2019-04-23T12:45:43.599Z,6.08
2019-04-23T12:55:51.245Z,9.18
2019-04-23T13:05:48.934Z,11.90
2019-04-23T13:08:41.360Z,10.00
2019-04-23T13:11:02.792Z,7.50
2019-04-23T13:16:03.295Z,9.78
2019-04-23T13:21:07.058Z,10.13
2019-04-23T13:23:34.789Z,7.90
2019-04-23T13:26:17.816Z,9.40
2019-04-23T13:28:45.364Z,7.92
2019-04-23T13:31:18.103Z,12.55
2019-04-23T13:34:07.148Z,9.13
2019-04-23T13:39:10.641Z,9.45
2019-04-23T13:43:47.900Z,8.53
2019-04-23T13:46:23.022Z,9.95
2019-04-23T13:48:55.455Z,8.90
2019-04-23T13:54:13.802Z,5.92
2019-04-23T13:59:29.034Z,7.78
2019-04-23T14:04:36.976Z,18.23
2019-04-23T14:06:55.575Z,12.88
2019-04-23T14:09:37.443Z,10.90
2019-04-23T14:11:51.593Z,8.60
2019-04-23T14:17:15.235Z,8.35
2019-04-23T14:19:31.161Z,8.28
2019-04-23T14:22:20.924Z,11.10
2019-04-23T14:24:46.192Z,10.25
2019-04-23T14:27:08.845Z,10.58
2019-04-23T14:29:43.623Z,7.65
2019-04-23T14:32:24.679Z,8.18
2019-04-23T14:34:43.956Z,8.13
2019-04-23T14:37:14.949Z,8.58
2019-04-23T14:39:40.242Z,8.23
2019-04-23T14:42:21.472Z,11.65
2019-04-23T14:44:52.435Z,8.75
2019-04-23T14:47:25.883Z,9.98
2019-04-23T14:50:15.005Z,12.60
2019-04-23T14:52:30.345Z,13.20
2019-04-23T14:55:35.431Z,12.15
2019-04-23T14:58:00.383Z,12.28
2019-04-23T15:00:03.707Z,9.78
2019-04-23T15:02:37.257Z,13.00
2019-04-23T15:05:09.675Z,9.13
2019-04-23T15:07:37.878Z,11.22
2019-04-23T15:10:23.159Z,13.60
2019-04-23T15:12:39.381Z,21.97
2019-04-23T15:15:18.502Z,14.75
2019-04-23T15:17:40.142Z,12.80
2019-04-23T15:20:14.928Z,8.40
2019-04-23T15:23:02.750Z,16.77
2019-04-23T15:25:30.247Z,12.28
2019-04-23T15:28:05.282Z,38.17
2019-04-23T15:30:09.215Z,29.90
2019-04-23T15:33:05.883Z,36.08
2019-04-23T15:40:30.240Z,13.28
2019-04-23T15:43:02.743Z,7.70
2019-04-23T15:45:28.278Z,11.78
2019-04-23T15:48:04.740Z,12.25
2019-04-23T15:55:36.921Z,7.47
2019-04-23T16:02:40.338Z,11.30
2019-04-23T16:05:12.184Z,10.60
2019-04-23T16:07:54.789Z,12.20
2019-04-23T16:10:52.358Z,13.62
2019-04-23T16:13:13.302Z,17.85
2019-04-23T16:15:46.830Z,12.03
2019-04-23T16:18:29.818Z,9.23
2019-04-23T16:23:28.288Z,17.55
2019-04-23T16:26:05.837Z,13.45
2019-04-23T16:28:27.253Z,12.35
2019-04-23T16:31:03.368Z,10.82
2019-04-23T16:33:35.301Z,26.82
2019-04-23T16:36:11.222Z,15.35
2019-04-23T16:38:50.400Z,13.50
2019-04-23T16:41:12.889Z,18.00
2019-04-23T16:43:45.797Z,10.03
2019-04-23T16:46:11.917Z,15.10
2019-04-23T16:49:06.846Z,7.17
2019-04-23T16:51:24.662Z,13.22
2019-04-23T16:53:46.747Z,55.45
2019-04-23T16:56:56.089Z,22.05
2019-04-23T16:58:54.857Z,19.67
2019-04-23T17:01:12.136Z,16.67
2019-04-23T17:04:00.979Z,7.03
2019-04-23T17:06:27.166Z,13.20
2019-04-23T17:14:00.799Z,22.65
2019-04-23T17:16:32.390Z,23.27
2019-04-23T17:19:07.419Z,13.20
2019-04-23T17:21:32.653Z,18.30
2019-04-23T17:24:12.733Z,20.60
2019-04-23T17:26:29.194Z,20.05
2019-04-23T17:29:09.873Z,29.05
2019-04-23T17:37:21.766Z,43.83
2019-04-23T17:45:32.293Z,23.85
2019-04-23T17:48:12.934Z,31.42
2019-04-23T17:51:00.564Z,22.98
2019-04-23T17:53:26.822Z,23.90
2019-04-23T17:56:16.431Z,14.47
2019-04-23T17:58:31.702Z,52.00
2019-04-23T18:01:11.250Z,41.53
2019-04-23T18:03:41.550Z,14.07
2019-04-23T18:08:33.130Z,14.15
2019-04-23T18:11:12.912Z,21.15
2019-04-23T18:18:48.389Z,27.10
2019-04-23T18:21:23.264Z,29.55
2019-04-23T18:24:23.317Z,39.73
2019-04-23T18:29:42.080Z,31.05
2019-04-23T18:32:15.108Z,43.70
2019-04-23T18:34:56.915Z,33.38
2019-04-23T18:37:11.588Z,70.90
2019-04-23T18:39:46.668Z,58.13
2019-04-23T18:42:24.366Z,50.12
2019-04-23T18:44:52.125Z,44.85
2019-04-23T18:47:26.155Z,23.10
2019-04-23T18:49:45.390Z,45.17
2019-04-23T18:52:25.731Z,44.45
2019-04-23T18:54:50.202Z,68.00
2019-04-23T18:57:12.821Z,44.73
2019-04-23T18:59:50.690Z,51.95
2019-04-23T19:02:53.941Z,32.85
2019-04-23T19:05:30.850Z,25.52
2019-04-23T19:08:20.928Z,32.98
2019-04-23T19:11:28.859Z,48.00
2019-04-23T19:13:45.994Z,31.23
2019-04-23T19:16:15.487Z,39.65
2019-04-23T19:18:56.337Z,20.68
2019-04-23T19:21:47.446Z,25.57
2019-04-23T19:23:50.963Z,18.50
2019-04-23T19:26:45.850Z,20.50
2019-04-23T19:28:56.127Z,17.27
2019-04-23T19:31:49.158Z,14.90
2019-04-23T19:34:23.911Z,10.90
2019-04-23T19:36:54.867Z,13.58
2019-04-23T19:39:24.788Z,12.10
2019-04-23T19:41:57.724Z,15.68
2019-04-23T19:44:16.326Z,14.85
2019-04-23T19:46:57.627Z,20.70
2019-04-23T19:51:56.725Z,13.58
2019-04-23T19:54:44.208Z,34.67
2019-04-23T19:59:37.787Z,17.87
2019-04-23T20:02:00.513Z,22.82
2019-04-23T20:04:28.773Z,18.87
2019-04-23T20:07:12.251Z,14.40
2019-04-23T20:09:43.147Z,21.47
2019-04-23T20:12:01.012Z,17.32
2019-04-23T20:14:42.937Z,11.90
2019-04-23T20:22:06.282Z,76.70
2019-04-23T20:24:52.659Z,27.05
2019-04-23T20:27:11.440Z,22.37
2019-04-23T20:32:05.551Z,54.43
2019-04-23T20:37:59.540Z,25.15
2019-04-23T20:42:37.217Z,45.30
2019-04-23T20:45:04.780Z,25.40
2019-04-23T20:47:44.250Z,23.73
2019-04-23T20:49:58.508Z,18.50
2019-04-23T20:52:37.093Z,18.85
2019-04-23T20:55:08.498Z,18.07
2019-04-23T20:58:07.204Z,14.87
2019-04-23T21:00:59.200Z,16.35
2019-04-23T21:05:50.404Z,17.52
2019-04-23T21:08:41.959Z,14.47
2019-04-23T21:10:48.302Z,16.05
2019-04-23T21:13:42.684Z,16.33
2019-04-23T21:16:12.997Z,28.30
2019-04-23T21:20:56.077Z,24.10
2019-04-23T21:23:28.767Z,20.05
2019-04-23T21:26:00.088Z,14.00
2019-04-23T21:31:11.624Z,11.22
2019-04-23T21:33:59.322Z,15.30
2019-04-23T21:36:35.446Z,12.85
2019-04-23T21:39:51.220Z,11.53
2019-04-23T21:44:40.541Z,18.60
2019-04-23T21:47:09.963Z,13.65
2019-04-23T21:52:12.499Z,10.00
2019-04-23T21:54:49.545Z,11.63
2019-04-23T21:57:14.646Z,14.50
2019-04-23T21:59:50.465Z,10.05
2019-04-23T22:02:36.798Z,12.82
2019-04-23T22:04:52.732Z,15.83
2019-04-23T22:07:17.935Z,21.07
2019-04-23T22:09:55.523Z,19.90
2019-04-23T22:12:22.582Z,33.03
2019-04-23T22:14:50.849Z,21.77
2019-04-23T22:17:25.753Z,18.20
2019-04-23T22:20:03.123Z,12.75
2019-04-23T22:22:29.064Z,14.65
2019-04-23T22:24:57.264Z,22.85
2019-04-23T22:27:24.315Z,17.35
2019-04-23T22:29:59.504Z,20.02
2019-04-23T22:32:45.826Z,16.65
2019-04-23T22:35:07.359Z,14.65
2019-04-23T22:37:36.507Z,14.98
2019-04-23T22:47:39.268Z,15.50
2019-04-23T22:50:05.911Z,17.87
2019-04-23T22:52:43.705Z,17.23
2019-04-23T22:55:27.263Z,14.07
2019-04-23T22:58:04.733Z,13.37
2019-04-23T23:00:14.698Z,17.65
2019-04-23T23:05:56.249Z,12.55
2019-04-23T23:08:13.481Z,11.37
2019-04-23T23:10:44.578Z,11.12
2019-04-23T23:13:15.228Z,12.13
2019-04-23T23:15:50.757Z,12.97
2019-04-23T23:21:05.620Z,8.77
2019-04-23T23:23:52.835Z,9.47
2019-04-23T23:26:09.731Z,7.30
2019-04-23T23:28:40.767Z,6.60
2019-04-23T23:31:16.234Z,13.13
2019-04-23T23:36:12.407Z,7.75
2019-04-23T23:38:50.572Z,10.33
2019-04-23T23:44:07.894Z,8.65
2019-04-23T23:46:35.216Z,7.83
2019-04-23T23:48:49.924Z,9.47
2019-04-23T23:53:58.609Z,8.85
2019-04-23T23:56:19.411Z,10.50
2019-04-23T23:58:56.987Z,11.53
